sensor_id;sensor_type;location;lat;lon;timestamp;P1;durP1;ratioP1;P2;durP2;ratioP2
38637;SDS011;24401;53.034;-3.030;2022-12-18T00:01:59;6.47;;;5.17;;
38637;SDS011;24401;53.034;-3.030;2022-12-18T00:04:29;6.33;;;4.37;;
38637;SDS011;24401;53.034;-3.030;2022-12-18T00:06:59;4.57;;;4.17;;
38637;SDS011;24401;53.034;-3.030;2022-12-18T00:09:30;4.37;;;2.80;;
38637;SDS011;24401;53.034;-3.030;2022-12-18T00:12:00;3.67;;;3.20;;
38637;SDS011;24401;53.034;-3.030;2022-12-18T00:14:30;2.95;;;2.75;;
38637;SDS011;24401;53.034;-3.030;2022-12-18T00:17:00;4.00;;;3.23;;
38637;SDS011;24401;53.034;-3.030;2022-12-18T00:19:31;6.90;;;3.67;;
38637;SDS011;24401;53.034;-3.030;2022-12-18T00:22:01;5.87;;;3.30;;
38637;SDS011;24401;53.034;-3.030;2022-12-18T00:24:31;2.47;;;2.27;;
38637;SDS011;24401;53.034;-3.030;2022-12-18T00:27:01;4.90;;;3.23;;
38637;SDS011;24401;53.034;-3.030;2022-12-18T00:29:32;6.23;;;2.50;;
38637;SDS011;24401;53.034;-3.030;2022-12-18T00:32:02;5.18;;;3.10;;
38637;SDS011;24401;53.034;-3.030;2022-12-18T00:34:32;11.87;;;3.53;;
38637;SDS011;24401;53.034;-3.030;2022-12-18T00:37:02;4.17;;;3.27;;
38637;SDS011;24401;53.034;-3.030;2022-12-18T00:39:33;7.20;;;3.03;;
38637;SDS011;24401;53.034;-3.030;2022-12-18T00:42:03;11.23;;;3.23;;
38637;SDS011;24401;53.034;-3.030;2022-12-18T00:44:52;6.90;;;2.75;;
38637;SDS011;24401;53.034;-3.030;2022-12-18T00:47:22;3.50;;;3.10;;
38637;SDS011;24401;53.034;-3.030;2022-12-18T00:49:52;2.67;;;2.47;;
38637;SDS011;24401;53.034;-3.030;2022-12-18T00:52:22;2.90;;;2.65;;
38637;SDS011;24401;53.034;-3.030;2022-12-18T00:54:53;3.85;;;2.95;;
38637;SDS011;24401;53.034;-3.030;2022-12-18T00:57:23;3.57;;;2.73;;
38637;SDS011;24401;53.034;-3.030;2022-12-18T00:59:53;4.17;;;2.90;;
38637;SDS011;24401;53.034;-3.030;2022-12-18T01:02:23;8.67;;;2.97;;
38637;SDS011;24401;53.034;-3.030;2022-12-18T01:04:53;4.73;;;3.37;;
38637;SDS011;24401;53.034;-3.030;2022-12-18T01:07:24;4.73;;;3.40;;
38637;SDS011;24401;53.034;-3.030;2022-12-18T01:09:54;4.90;;;3.67;;
38637;SDS011;24401;53.034;-3.030;2022-12-18T01:12:24;5.10;;;3.83;;
38637;SDS011;24401;53.034;-3.030;2022-12-18T01:14:54;6.93;;;3.53;;
38637;SDS011;24401;53.034;-3.030;2022-12-18T01:17:25;4.10;;;3.80;;
38637;SDS011;24401;53.034;-3.030;2022-12-18T01:19:55;5.15;;;3.83;;
38637;SDS011;24401;53.034;-3.030;2022-12-18T01:22:25;3.87;;;3.20;;
38637;SDS011;24401;53.034;-3.030;2022-12-18T01:24:55;5.93;;;3.20;;
38637;SDS011;24401;53.034;-3.030;2022-12-18T01:27:26;4.00;;;3.70;;
38637;SDS011;24401;53.034;-3.030;2022-12-18T01:29:56;2.87;;;2.57;;
38637;SDS011;24401;53.034;-3.030;2022-12-18T01:32:28;4.83;;;3.60;;
38637;SDS011;24401;53.034;-3.030;2022-12-18T01:34:59;6.53;;;4.07;;
38637;SDS011;24401;53.034;-3.030;2022-12-18T01:37:29;5.20;;;4.00;;
38637;SDS011;24401;53.034;-3.030;2022-12-18T01:39:59;4.83;;;4.10;;
38637;SDS011;24401;53.034;-3.030;2022-12-18T01:42:29;3.70;;;3.40;;
38637;SDS011;24401;53.034;-3.030;2022-12-18T01:45:04;3.37;;;3.07;;
38637;SDS011;24401;53.034;-3.030;2022-12-18T01:47:42;3.15;;;2.88;;
38637;SDS011;24401;53.034;-3.030;2022-12-18T01:50:20;7.82;;;3.80;;
38637;SDS011;24401;53.034;-3.030;2022-12-18T01:52:52;5.15;;;3.60;;
38637;SDS011;24401;53.034;-3.030;2022-12-18T01:55:25;8.27;;;3.13;;
38637;SDS011;24401;53.034;-3.030;2022-12-18T01:57:57;5.43;;;3.30;;
38637;SDS011;24401;53.034;-3.030;2022-12-18T02:00:28;4.05;;;3.17;;
38637;SDS011;24401;53.034;-3.030;2022-12-18T02:02:58;4.87;;;3.50;;
38637;SDS011;24401;53.034;-3.030;2022-12-18T02:08:22;2.90;;;2.70;;
38637;SDS011;24401;53.034;-3.030;2022-12-18T02:18:44;5.60;;;2.43;;
38637;SDS011;24401;53.034;-3.030;2022-12-18T02:26:34;4.72;;;2.70;;
38637;SDS011;24401;53.034;-3.030;2022-12-18T02:30:06;6.65;;;2.70;;
38637;SDS011;24401;53.034;-3.030;2022-12-18T02:32:07;5.45;;;2.15;;
38637;SDS011;24401;53.034;-3.030;2022-12-18T02:34:39;5.18;;;2.70;;
38637;SDS011;24401;53.034;-3.030;2022-12-18T02:37:11;5.40;;;2.60;;
38637;SDS011;24401;53.034;-3.030;2022-12-18T02:39:43;3.00;;;2.40;;
38637;SDS011;24401;53.034;-3.030;2022-12-18T02:42:14;2.83;;;2.55;;
38637;SDS011;24401;53.034;-3.030;2022-12-18T02:44:45;6.13;;;2.30;;
38637;SDS011;24401;53.034;-3.030;2022-12-18T02:47:20;3.78;;;2.65;;
38637;SDS011;24401;53.034;-3.030;2022-12-18T03:00:34;4.72;;;2.35;;
38637;SDS011;24401;53.034;-3.030;2022-12-18T03:03:18;4.80;;;2.22;;
38637;SDS011;24401;53.034;-3.030;2022-12-18T03:05:50;3.72;;;2.30;;
38637;SDS011;24401;53.034;-3.030;2022-12-18T03:08:26;2.92;;;2.35;;
38637;SDS011;24401;53.034;-3.030;2022-12-18T03:11:05;2.75;;;2.33;;
38637;SDS011;24401;53.034;-3.030;2022-12-18T03:13:40;2.85;;;2.35;;
38637;SDS011;24401;53.034;-3.030;2022-12-18T03:16:15;2.28;;;2.08;;
38637;SDS011;24401;53.034;-3.030;2022-12-18T03:21:19;3.17;;;2.37;;
38637;SDS011;24401;53.034;-3.030;2022-12-18T03:23:50;3.38;;;2.60;;
38637;SDS011;24401;53.034;-3.030;2022-12-18T03:26:22;2.67;;;2.00;;
38637;SDS011;24401;53.034;-3.030;2022-12-18T03:28:54;2.45;;;2.25;;
38637;SDS011;24401;53.034;-3.030;2022-12-18T03:31:25;2.15;;;1.92;;
38637;SDS011;24401;53.034;-3.030;2022-12-18T03:33:58;3.08;;;2.20;;
38637;SDS011;24401;53.034;-3.030;2022-12-18T03:36:30;3.40;;;2.78;;
38637;SDS011;24401;53.034;-3.030;2022-12-18T03:39:01;7.03;;;2.63;;
38637;SDS011;24401;53.034;-3.030;2022-12-18T03:41:40;3.70;;;3.33;;
38637;SDS011;24401;53.034;-3.030;2022-12-18T03:44:14;9.27;;;2.80;;
38637;SDS011;24401;53.034;-3.030;2022-12-18T03:46:58;4.53;;;3.03;;
38637;SDS011;24401;53.034;-3.030;2022-12-18T03:49:35;2.67;;;2.35;;
38637;SDS011;24401;53.034;-3.030;2022-12-18T03:52:08;3.45;;;3.15;;
38637;SDS011;24401;53.034;-3.030;2022-12-18T03:54:39;3.75;;;3.17;;
38637;SDS011;24401;53.034;-3.030;2022-12-18T03:57:16;3.35;;;3.05;;
38637;SDS011;24401;53.034;-3.030;2022-12-18T03:59:47;4.00;;;2.92;;
38637;SDS011;24401;53.034;-3.030;2022-12-18T04:02:19;4.57;;;3.08;;
38637;SDS011;24401;53.034;-3.030;2022-12-18T04:04:52;3.92;;;3.08;;
38637;SDS011;24401;53.034;-3.030;2022-12-18T04:07:23;7.07;;;2.88;;
38637;SDS011;24401;53.034;-3.030;2022-12-18T04:09:54;6.03;;;2.60;;
38637;SDS011;24401;53.034;-3.030;2022-12-18T04:12:26;3.13;;;2.58;;
38637;SDS011;24401;53.034;-3.030;2022-12-18T04:14:56;5.00;;;2.70;;
38637;SDS011;24401;53.034;-3.030;2022-12-18T04:17:27;3.87;;;3.47;;
38637;SDS011;24401;53.034;-3.030;2022-12-18T04:19:57;8.43;;;3.70;;
38637;SDS011;24401;53.034;-3.030;2022-12-18T04:22:27;4.33;;;3.60;;
38637;SDS011;24401;53.034;-3.030;2022-12-18T04:24:57;4.60;;;2.40;;
38637;SDS011;24401;53.034;-3.030;2022-12-18T04:27:27;3.40;;;3.10;;
38637;SDS011;24401;53.034;-3.030;2022-12-18T04:29:58;8.60;;;2.73;;
38637;SDS011;24401;53.034;-3.030;2022-12-18T04:32:28;4.93;;;2.70;;
38637;SDS011;24401;53.034;-3.030;2022-12-18T04:34:58;7.60;;;3.20;;
38637;SDS011;24401;53.034;-3.030;2022-12-18T04:37:28;3.23;;;2.47;;
38637;SDS011;24401;53.034;-3.030;2022-12-18T04:39:59;3.90;;;3.60;;
38637;SDS011;24401;53.034;-3.030;2022-12-18T04:42:29;4.57;;;3.87;;
38637;SDS011;24401;53.034;-3.030;2022-12-18T04:44:59;4.22;;;3.03;;
38637;SDS011;24401;53.034;-3.030;2022-12-18T04:47:30;7.50;;;3.33;;
38637;SDS011;24401;53.034;-3.030;2022-12-18T04:50:00;4.73;;;3.40;;
38637;SDS011;24401;53.034;-3.030;2022-12-18T04:52:30;6.60;;;3.80;;
38637;SDS011;24401;53.034;-3.030;2022-12-18T04:55:01;3.77;;;3.47;;
38637;SDS011;24401;53.034;-3.030;2022-12-18T04:57:31;3.83;;;3.43;;
38637;SDS011;24401;53.034;-3.030;2022-12-18T05:00:02;6.90;;;3.67;;
38637;SDS011;24401;53.034;-3.030;2022-12-18T05:02:32;3.75;;;3.40;;
38637;SDS011;24401;53.034;-3.030;2022-12-18T05:05:03;5.47;;;4.43;;
38637;SDS011;24401;53.034;-3.030;2022-12-18T05:07:33;6.30;;;3.63;;
38637;SDS011;24401;53.034;-3.030;2022-12-18T05:10:04;5.67;;;4.07;;
38637;SDS011;24401;53.034;-3.030;2022-12-18T05:12:34;3.97;;;3.57;;
38637;SDS011;24401;53.034;-3.030;2022-12-18T05:15:26;9.90;;;4.03;;
38637;SDS011;24401;53.034;-3.030;2022-12-18T05:17:57;6.45;;;4.28;;
38637;SDS011;24401;53.034;-3.030;2022-12-18T05:20:28;6.17;;;4.37;;
38637;SDS011;24401;53.034;-3.030;2022-12-18T05:22:58;5.60;;;4.13;;
38637;SDS011;24401;53.034;-3.030;2022-12-18T05:25:28;4.80;;;3.87;;
38637;SDS011;24401;53.034;-3.030;2022-12-18T05:27:58;4.03;;;3.70;;
38637;SDS011;24401;53.034;-3.030;2022-12-18T05:30:29;4.72;;;3.85;;
38637;SDS011;24401;53.034;-3.030;2022-12-18T05:32:59;5.90;;;4.00;;
38637;SDS011;24401;53.034;-3.030;2022-12-18T05:35:29;7.07;;;3.57;;
38637;SDS011;24401;53.034;-3.030;2022-12-18T05:37:59;3.83;;;3.43;;
38637;SDS011;24401;53.034;-3.030;2022-12-18T05:40:29;5.97;;;3.90;;
38637;SDS011;24401;53.034;-3.030;2022-12-18T05:43:00;5.17;;;4.13;;
38637;SDS011;24401;53.034;-3.030;2022-12-18T05:45:30;5.83;;;4.33;;
38637;SDS011;24401;53.034;-3.030;2022-12-18T05:48:00;4.50;;;4.10;;
38637;SDS011;24401;53.034;-3.030;2022-12-18T05:50:30;6.10;;;4.43;;
38637;SDS011;24401;53.034;-3.030;2022-12-18T05:53:01;5.38;;;4.88;;
38637;SDS011;24401;53.034;-3.030;2022-12-18T05:55:38;4.82;;;4.43;;
38637;SDS011;24401;53.034;-3.030;2022-12-18T05:58:09;5.15;;;4.65;;
38637;SDS011;24401;53.034;-3.030;2022-12-18T06:00:40;4.97;;;4.07;;
38637;SDS011;24401;53.034;-3.030;2022-12-18T06:03:11;7.97;;;4.55;;
38637;SDS011;24401;53.034;-3.030;2022-12-18T06:05:43;4.93;;;4.40;;
38637;SDS011;24401;53.034;-3.030;2022-12-18T06:08:14;6.90;;;4.83;;
38637;SDS011;24401;53.034;-3.030;2022-12-18T06:10:49;5.17;;;4.67;;
38637;SDS011;24401;53.034;-3.030;2022-12-18T06:13:19;5.65;;;4.97;;
38637;SDS011;24401;53.034;-3.030;2022-12-18T06:15:49;5.13;;;4.67;;
38637;SDS011;24401;53.034;-3.030;2022-12-18T06:18:20;5.13;;;4.63;;
38637;SDS011;24401;53.034;-3.030;2022-12-18T06:20:54;5.67;;;5.10;;
38637;SDS011;24401;53.034;-3.030;2022-12-18T06:23:24;8.25;;;5.97;;
38637;SDS011;24401;53.034;-3.030;2022-12-18T06:25:55;5.97;;;5.37;;
38637;SDS011;24401;53.034;-3.030;2022-12-18T06:28:25;5.75;;;5.10;;
38637;SDS011;24401;53.034;-3.030;2022-12-18T06:30:55;9.57;;;6.40;;
38637;SDS011;24401;53.034;-3.030;2022-12-18T06:33:27;7.00;;;5.63;;
38637;SDS011;24401;53.034;-3.030;2022-12-18T06:36:02;7.68;;;6.95;;
38637;SDS011;24401;53.034;-3.030;2022-12-18T06:38:33;7.30;;;5.75;;
38637;SDS011;24401;53.034;-3.030;2022-12-18T06:41:07;7.60;;;6.10;;
38637;SDS011;24401;53.034;-3.030;2022-12-18T06:43:37;6.00;;;5.40;;
38637;SDS011;24401;53.034;-3.030;2022-12-18T06:46:08;6.83;;;6.13;;
38637;SDS011;24401;53.034;-3.030;2022-12-18T06:48:38;9.97;;;6.03;;
38637;SDS011;24401;53.034;-3.030;2022-12-18T06:51:08;13.67;;;6.57;;
38637;SDS011;24401;53.034;-3.030;2022-12-18T06:53:39;6.47;;;5.70;;
38637;SDS011;24401;53.034;-3.030;2022-12-18T06:56:09;9.00;;;4.90;;
38637;SDS011;24401;53.034;-3.030;2022-12-18T06:58:39;6.70;;;6.03;;
38637;SDS011;24401;53.034;-3.030;2022-12-18T07:01:10;9.93;;;6.93;;
38637;SDS011;24401;53.034;-3.030;2022-12-18T07:03:41;8.98;;;7.05;;
38637;SDS011;24401;53.034;-3.030;2022-12-18T07:06:15;8.80;;;6.43;;
38637;SDS011;24401;53.034;-3.030;2022-12-18T07:08:46;7.43;;;6.82;;
38637;SDS011;24401;53.034;-3.030;2022-12-18T07:11:17;9.70;;;7.00;;
38637;SDS011;24401;53.034;-3.030;2022-12-18T07:13:47;7.43;;;6.75;;
38637;SDS011;24401;53.034;-3.030;2022-12-18T07:16:19;9.13;;;6.27;;
38637;SDS011;24401;53.034;-3.030;2022-12-18T07:18:49;10.50;;;6.25;;
38637;SDS011;24401;53.034;-3.030;2022-12-18T07:21:21;11.25;;;6.40;;
38637;SDS011;24401;53.034;-3.030;2022-12-18T07:23:51;11.93;;;6.93;;
38637;SDS011;24401;53.034;-3.030;2022-12-18T07:26:22;8.30;;;7.35;;
38637;SDS011;24401;53.034;-3.030;2022-12-18T07:28:54;8.37;;;7.23;;
38637;SDS011;24401;53.034;-3.030;2022-12-18T07:31:25;10.75;;;7.72;;
38637;SDS011;24401;53.034;-3.030;2022-12-18T07:33:55;12.68;;;7.78;;
38637;SDS011;24401;53.034;-3.030;2022-12-18T07:36:26;9.47;;;8.37;;
38637;SDS011;24401;53.034;-3.030;2022-12-18T07:38:56;8.60;;;7.77;;
38637;SDS011;24401;53.034;-3.030;2022-12-18T07:41:26;15.53;;;9.13;;
38637;SDS011;24401;53.034;-3.030;2022-12-18T07:43:56;13.40;;;8.32;;
38637;SDS011;24401;53.034;-3.030;2022-12-18T07:46:27;10.80;;;8.20;;
38637;SDS011;24401;53.034;-3.030;2022-12-18T07:48:57;9.97;;;8.97;;
38637;SDS011;24401;53.034;-3.030;2022-12-18T07:51:27;13.23;;;9.30;;
38637;SDS011;24401;53.034;-3.030;2022-12-18T07:53:57;19.33;;;9.20;;
38637;SDS011;24401;53.034;-3.030;2022-12-18T07:56:27;18.37;;;9.17;;
38637;SDS011;24401;53.034;-3.030;2022-12-18T07:58:58;11.70;;;10.07;;
38637;SDS011;24401;53.034;-3.030;2022-12-18T08:01:28;18.17;;;10.17;;
38637;SDS011;24401;53.034;-3.030;2022-12-18T08:03:59;16.52;;;10.45;;
38637;SDS011;24401;53.034;-3.030;2022-12-18T08:06:29;19.20;;;10.43;;
38637;SDS011;24401;53.034;-3.030;2022-12-18T08:08:59;15.67;;;9.53;;
38637;SDS011;24401;53.034;-3.030;2022-12-18T08:11:30;16.60;;;8.23;;
38637;SDS011;24401;53.034;-3.030;2022-12-18T08:14:00;15.50;;;9.10;;
38637;SDS011;24401;53.034;-3.030;2022-12-18T08:16:30;19.50;;;9.60;;
38637;SDS011;24401;53.034;-3.030;2022-12-18T08:19:00;13.73;;;11.02;;
38637;SDS011;24401;53.034;-3.030;2022-12-18T08:21:31;18.58;;;10.07;;
38637;SDS011;24401;53.034;-3.030;2022-12-18T08:24:01;14.02;;;8.90;;
38637;SDS011;24401;53.034;-3.030;2022-12-18T08:26:32;17.00;;;9.93;;
38637;SDS011;24401;53.034;-3.030;2022-12-18T08:29:02;15.13;;;9.97;;
38637;SDS011;24401;53.034;-3.030;2022-12-18T08:31:32;11.57;;;9.57;;
38637;SDS011;24401;53.034;-3.030;2022-12-18T08:34:02;14.10;;;10.27;;
38637;SDS011;24401;53.034;-3.030;2022-12-18T08:36:33;18.45;;;9.95;;
38637;SDS011;24401;53.034;-3.030;2022-12-18T08:39:03;14.83;;;9.97;;
38637;SDS011;24401;53.034;-3.030;2022-12-18T08:41:33;13.87;;;10.27;;
38637;SDS011;24401;53.034;-3.030;2022-12-18T08:44:03;14.43;;;9.15;;
38637;SDS011;24401;53.034;-3.030;2022-12-18T08:46:52;11.43;;;10.05;;
38637;SDS011;24401;53.034;-3.030;2022-12-18T08:49:22;12.63;;;10.33;;
38637;SDS011;24401;53.034;-3.030;2022-12-18T08:51:54;15.93;;;11.17;;
38637;SDS011;24401;53.034;-3.030;2022-12-18T08:54:24;16.02;;;10.70;;
38637;SDS011;24401;53.034;-3.030;2022-12-18T08:56:55;13.07;;;10.03;;
38637;SDS011;24401;53.034;-3.030;2022-12-18T08:59:25;15.53;;;8.90;;
38637;SDS011;24401;53.034;-3.030;2022-12-18T09:01:55;19.07;;;10.00;;
38637;SDS011;24401;53.034;-3.030;2022-12-18T09:04:26;22.27;;;11.20;;
38637;SDS011;24401;53.034;-3.030;2022-12-18T09:06:56;15.27;;;11.40;;
38637;SDS011;24401;53.034;-3.030;2022-12-18T09:09:26;11.67;;;8.97;;
38637;SDS011;24401;53.034;-3.030;2022-12-18T09:11:56;10.83;;;8.30;;
38637;SDS011;24401;53.034;-3.030;2022-12-18T09:14:27;11.97;;;9.23;;
38637;SDS011;24401;53.034;-3.030;2022-12-18T09:16:57;15.73;;;8.90;;
38637;SDS011;24401;53.034;-3.030;2022-12-18T09:19:27;13.05;;;10.40;;
38637;SDS011;24401;53.034;-3.030;2022-12-18T09:21:57;11.43;;;10.23;;
38637;SDS011;24401;53.034;-3.030;2022-12-18T09:24:28;17.92;;;10.13;;
38637;SDS011;24401;53.034;-3.030;2022-12-18T09:26:58;16.33;;;10.17;;
38637;SDS011;24401;53.034;-3.030;2022-12-18T09:29:28;17.33;;;11.55;;
38637;SDS011;24401;53.034;-3.030;2022-12-18T09:31:58;14.90;;;10.63;;
38637;SDS011;24401;53.034;-3.030;2022-12-18T09:34:29;20.57;;;10.67;;
38637;SDS011;24401;53.034;-3.030;2022-12-18T09:36:59;17.27;;;10.03;;
38637;SDS011;24401;53.034;-3.030;2022-12-18T09:39:29;9.20;;;8.10;;
38637;SDS011;24401;53.034;-3.030;2022-12-18T09:41:59;12.53;;;10.67;;
38637;SDS011;24401;53.034;-3.030;2022-12-18T09:44:34;18.30;;;10.50;;
38637;SDS011;24401;53.034;-3.030;2022-12-18T09:49:46;20.17;;;11.32;;
38637;SDS011;24401;53.034;-3.030;2022-12-18T09:54:54;21.42;;;10.90;;
38637;SDS011;24401;53.034;-3.030;2022-12-18T09:57:26;19.88;;;10.32;;
38637;SDS011;24401;53.034;-3.030;2022-12-18T09:59:58;16.93;;;10.27;;
38637;SDS011;24401;53.034;-3.030;2022-12-18T10:02:31;14.50;;;10.88;;
38637;SDS011;24401;53.034;-3.030;2022-12-18T10:05:06;19.00;;;10.43;;
38637;SDS011;24401;53.034;-3.030;2022-12-18T10:10:32;11.57;;;10.07;;
38637;SDS011;24401;53.034;-3.030;2022-12-18T10:13:02;14.27;;;9.32;;
38637;SDS011;24401;53.034;-3.030;2022-12-18T10:15:36;15.27;;;9.40;;
38637;SDS011;24401;53.034;-3.030;2022-12-18T10:20:51;13.80;;;9.15;;
38637;SDS011;24401;53.034;-3.030;2022-12-18T10:23:26;15.48;;;9.90;;
38637;SDS011;24401;53.034;-3.030;2022-12-18T10:28:29;18.20;;;10.33;;
38637;SDS011;24401;53.034;-3.030;2022-12-18T10:30:59;11.77;;;10.13;;
38637;SDS011;24401;53.034;-3.030;2022-12-18T10:33:30;13.47;;;9.23;;
38637;SDS011;24401;53.034;-3.030;2022-12-18T10:36:01;17.73;;;10.38;;
38637;SDS011;24401;53.034;-3.030;2022-12-18T10:38:34;10.33;;;9.17;;
38637;SDS011;24401;53.034;-3.030;2022-12-18T10:41:05;17.00;;;9.23;;
38637;SDS011;24401;53.034;-3.030;2022-12-18T10:43:36;14.43;;;8.85;;
38637;SDS011;24401;53.034;-3.030;2022-12-18T10:51:22;12.77;;;8.98;;
38637;SDS011;24401;53.034;-3.030;2022-12-18T10:53:54;14.02;;;10.13;;
38637;SDS011;24401;53.034;-3.030;2022-12-18T10:56:26;15.18;;;10.20;;
38637;SDS011;24401;53.034;-3.030;2022-12-18T10:58:58;13.35;;;8.52;;
38637;SDS011;24401;53.034;-3.030;2022-12-18T11:04:00;12.80;;;9.03;;
38637;SDS011;24401;53.034;-3.030;2022-12-18T11:06:30;13.55;;;9.35;;
38637;SDS011;24401;53.034;-3.030;2022-12-18T11:09:04;15.87;;;10.30;;
38637;SDS011;24401;53.034;-3.030;2022-12-18T11:11:35;11.43;;;9.63;;
38637;SDS011;24401;53.034;-3.030;2022-12-18T11:14:10;16.60;;;9.33;;
38637;SDS011;24401;53.034;-3.030;2022-12-18T11:16:44;13.30;;;8.18;;
38637;SDS011;24401;53.034;-3.030;2022-12-18T11:19:33;14.23;;;10.10;;
38637;SDS011;24401;53.034;-3.030;2022-12-18T11:22:23;10.95;;;8.40;;
38637;SDS011;24401;53.034;-3.030;2022-12-18T11:24:57;16.45;;;9.18;;
38637;SDS011;24401;53.034;-3.030;2022-12-18T11:27:28;13.73;;;8.77;;
38637;SDS011;24401;53.034;-3.030;2022-12-18T11:30:13;20.43;;;10.27;;
38637;SDS011;24401;53.034;-3.030;2022-12-18T11:32:51;16.45;;;11.18;;
38637;SDS011;24401;53.034;-3.030;2022-12-18T11:35:34;16.05;;;10.40;;
38637;SDS011;24401;53.034;-3.030;2022-12-18T11:38:20;23.65;;;11.43;;
38637;SDS011;24401;53.034;-3.030;2022-12-18T11:40:57;11.32;;;9.50;;
38637;SDS011;24401;53.034;-3.030;2022-12-18T11:46:08;10.85;;;8.55;;
38637;SDS011;24401;53.034;-3.030;2022-12-18T11:48:55;13.48;;;9.48;;
38637;SDS011;24401;53.034;-3.030;2022-12-18T11:51:32;11.68;;;8.65;;
38637;SDS011;24401;53.034;-3.030;2022-12-18T11:54:13;16.90;;;9.35;;
38637;SDS011;24401;53.034;-3.030;2022-12-18T11:56:46;18.08;;;10.45;;
38637;SDS011;24401;53.034;-3.030;2022-12-18T12:00:02;13.70;;;9.23;;
38637;SDS011;24401;53.034;-3.030;2022-12-18T12:07:42;12.02;;;9.05;;
38637;SDS011;24401;53.034;-3.030;2022-12-18T12:10:24;14.07;;;8.90;;
38637;SDS011;24401;53.034;-3.030;2022-12-18T12:15:34;17.20;;;9.93;;
38637;SDS011;24401;53.034;-3.030;2022-12-18T12:25:44;22.17;;;9.00;;
38637;SDS011;24401;53.034;-3.030;2022-12-18T12:33:32;14.10;;;9.90;;
38637;SDS011;24401;53.034;-3.030;2022-12-18T12:36:15;12.27;;;8.93;;
38637;SDS011;24401;53.034;-3.030;2022-12-18T12:38:55;11.88;;;8.05;;
38637;SDS011;24401;53.034;-3.030;2022-12-18T12:41:27;19.90;;;9.57;;
38637;SDS011;24401;53.034;-3.030;2022-12-18T12:44:23;13.27;;;9.27;;
38637;SDS011;24401;53.034;-3.030;2022-12-18T12:46:58;13.95;;;7.30;;
38637;SDS011;24401;53.034;-3.030;2022-12-18T12:49:30;28.88;;;16.52;;
38637;SDS011;24401;53.034;-3.030;2022-12-18T12:52:10;10.98;;;8.88;;
38637;SDS011;24401;53.034;-3.030;2022-12-18T12:54:41;17.67;;;9.70;;
38637;SDS011;24401;53.034;-3.030;2022-12-18T12:57:14;12.33;;;9.70;;
38637;SDS011;24401;53.034;-3.030;2022-12-18T13:05:22;11.77;;;8.63;;
38637;SDS011;24401;53.034;-3.030;2022-12-18T13:07:57;12.50;;;8.65;;
38637;SDS011;24401;53.034;-3.030;2022-12-18T13:10:33;18.20;;;9.23;;
38637;SDS011;24401;53.034;-3.030;2022-12-18T13:20:48;10.95;;;8.25;;
38637;SDS011;24401;53.034;-3.030;2022-12-18T13:33:53;8.57;;;7.72;;
38637;SDS011;24401;53.034;-3.030;2022-12-18T13:36:39;9.35;;;7.65;;
38637;SDS011;24401;53.034;-3.030;2022-12-18T13:41:40;9.85;;;7.80;;
38637;SDS011;24401;53.034;-3.030;2022-12-18T13:46:53;14.95;;;9.70;;
38637;SDS011;24401;53.034;-3.030;2022-12-18T13:51:54;9.47;;;7.23;;
38637;SDS011;24401;53.034;-3.030;2022-12-18T13:57:05;11.93;;;8.02;;
38637;SDS011;24401;53.034;-3.030;2022-12-18T13:59:37;11.35;;;8.63;;
38637;SDS011;24401;53.034;-3.030;2022-12-18T14:02:14;17.25;;;9.45;;
38637;SDS011;24401;53.034;-3.030;2022-12-18T14:04:46;8.52;;;7.70;;
38637;SDS011;24401;53.034;-3.030;2022-12-18T14:07:17;8.87;;;7.97;;
38637;SDS011;24401;53.034;-3.030;2022-12-18T14:09:57;11.65;;;7.93;;
38637;SDS011;24401;53.034;-3.030;2022-12-18T14:12:31;7.90;;;7.20;;
38637;SDS011;24401;53.034;-3.030;2022-12-18T14:17:50;12.83;;;8.83;;
38637;SDS011;24401;53.034;-3.030;2022-12-18T14:20:21;10.73;;;8.13;;
38637;SDS011;24401;53.034;-3.030;2022-12-18T14:22:52;9.52;;;8.50;;
38637;SDS011;24401;53.034;-3.030;2022-12-18T14:25:26;10.80;;;8.93;;
38637;SDS011;24401;53.034;-3.030;2022-12-18T14:30:37;9.52;;;8.60;;
38637;SDS011;24401;53.034;-3.030;2022-12-18T14:38:33;11.98;;;10.20;;
38637;SDS011;24401;53.034;-3.030;2022-12-18T14:41:05;16.73;;;11.98;;
38637;SDS011;24401;53.034;-3.030;2022-12-18T14:43:36;14.68;;;10.68;;
38637;SDS011;24401;53.034;-3.030;2022-12-18T14:48:55;8.90;;;8.02;;
38637;SDS011;24401;53.034;-3.030;2022-12-18T14:51:27;18.00;;;10.67;;
38637;SDS011;24401;53.034;-3.030;2022-12-18T14:53:58;23.73;;;13.48;;
38637;SDS011;24401;53.034;-3.030;2022-12-18T14:56:31;14.20;;;11.63;;
38637;SDS011;24401;53.034;-3.030;2022-12-18T15:01:34;10.50;;;9.40;;
38637;SDS011;24401;53.034;-3.030;2022-12-18T15:04:19;12.27;;;9.90;;
38637;SDS011;24401;53.034;-3.030;2022-12-18T15:09:43;12.90;;;10.48;;
38637;SDS011;24401;53.034;-3.030;2022-12-18T15:14:44;11.52;;;9.27;;
38637;SDS011;24401;53.034;-3.030;2022-12-18T15:17:18;9.87;;;8.97;;
38637;SDS011;24401;53.034;-3.030;2022-12-18T15:19:50;9.07;;;8.18;;
38637;SDS011;24401;53.034;-3.030;2022-12-18T15:24:51;9.87;;;8.47;;
38637;SDS011;24401;53.034;-3.030;2022-12-18T15:27:29;10.20;;;8.52;;
38637;SDS011;24401;53.034;-3.030;2022-12-18T15:37:49;9.75;;;8.38;;
38637;SDS011;24401;53.034;-3.030;2022-12-18T15:40:21;9.77;;;8.98;;
38637;SDS011;24401;53.034;-3.030;2022-12-18T15:42:52;9.70;;;8.18;;
38637;SDS011;24401;53.034;-3.030;2022-12-18T15:45:42;10.32;;;9.45;;
38637;SDS011;24401;53.034;-3.030;2022-12-18T15:48:15;9.10;;;8.13;;
38637;SDS011;24401;53.034;-3.030;2022-12-18T15:50:48;8.18;;;7.38;;
38637;SDS011;24401;53.034;-3.030;2022-12-18T15:53:19;12.13;;;8.40;;
38637;SDS011;24401;53.034;-3.030;2022-12-18T15:55:50;9.20;;;8.40;;
38637;SDS011;24401;53.034;-3.030;2022-12-18T15:58:38;10.57;;;9.32;;
38637;SDS011;24401;53.034;-3.030;2022-12-18T16:01:09;10.43;;;8.47;;
38637;SDS011;24401;53.034;-3.030;2022-12-18T16:03:40;9.73;;;8.67;;
38637;SDS011;24401;53.034;-3.030;2022-12-18T16:06:10;9.70;;;8.80;;
38637;SDS011;24401;53.034;-3.030;2022-12-18T16:08:40;15.88;;;8.77;;
38637;SDS011;24401;53.034;-3.030;2022-12-18T16:11:20;8.97;;;8.17;;
38637;SDS011;24401;53.034;-3.030;2022-12-18T16:16:48;9.73;;;7.32;;
38637;SDS011;24401;53.034;-3.030;2022-12-18T16:19:19;9.77;;;7.47;;
38637;SDS011;24401;53.034;-3.030;2022-12-18T16:21:51;9.88;;;8.98;;
38637;SDS011;24401;53.034;-3.030;2022-12-18T16:24:23;11.17;;;9.80;;
38637;SDS011;24401;53.034;-3.030;2022-12-18T16:26:54;14.35;;;9.85;;
38637;SDS011;24401;53.034;-3.030;2022-12-18T16:29:24;10.57;;;9.50;;
38637;SDS011;24401;53.034;-3.030;2022-12-18T16:31:58;10.13;;;8.18;;
38637;SDS011;24401;53.034;-3.030;2022-12-18T16:34:29;8.90;;;8.00;;
38637;SDS011;24401;53.034;-3.030;2022-12-18T16:37:01;9.75;;;8.73;;
38637;SDS011;24401;53.034;-3.030;2022-12-18T16:39:32;8.23;;;6.63;;
38637;SDS011;24401;53.034;-3.030;2022-12-18T16:42:05;9.60;;;8.63;;
38637;SDS011;24401;53.034;-3.030;2022-12-18T16:47:06;7.78;;;7.07;;
38637;SDS011;24401;53.034;-3.030;2022-12-18T16:49:36;8.87;;;8.13;;
38637;SDS011;24401;53.034;-3.030;2022-12-18T16:52:06;8.20;;;7.40;;
38637;SDS011;24401;53.034;-3.030;2022-12-18T16:54:37;9.45;;;8.27;;
38637;SDS011;24401;53.034;-3.030;2022-12-18T16:57:08;8.48;;;7.68;;
38637;SDS011;24401;53.034;-3.030;2022-12-18T16:59:38;10.65;;;8.73;;
38637;SDS011;24401;53.034;-3.030;2022-12-18T17:02:13;7.80;;;6.90;;
38637;SDS011;24401;53.034;-3.030;2022-12-18T17:04:44;9.60;;;8.45;;
38637;SDS011;24401;53.034;-3.030;2022-12-18T17:07:15;14.90;;;7.90;;
38637;SDS011;24401;53.034;-3.030;2022-12-18T17:09:45;12.35;;;8.98;;
38637;SDS011;24401;53.034;-3.030;2022-12-18T17:12:16;10.82;;;9.25;;
38637;SDS011;24401;53.034;-3.030;2022-12-18T17:14:46;9.18;;;7.75;;
38637;SDS011;24401;53.034;-3.030;2022-12-18T17:17:17;9.13;;;8.02;;
38637;SDS011;24401;53.034;-3.030;2022-12-18T17:19:47;6.83;;;6.13;;
38637;SDS011;24401;53.034;-3.030;2022-12-18T17:22:18;14.67;;;10.43;;